Time;durP1;ratioP1;P1;durP2;ratioP2;P2;SDS_P1;SDS_P2;PMS_P1;PMS_P2;Temp;Humidity;BMP_temperature;BMP_pressure;BME280_temperature;BME280_humidity;BME280_pressure;Samples;Min_cycle;Max_cycle;Signal;HPM_P1;HPM_P2
2022/02/01 00:02:44;;;;;;;;;;;;;;;5.49;59.49;98762.22;4504051;31;20002;-85
2022/02/01 00:05:25;;;;;;;;;;;;;;;5.55;59.50;98757.72;4503953;31;20402;-86
2022/02/01 00:08:02;;;;;;;;;;;;;;;5.65;59.50;98755.72;4516407;31;19980;-86
2022/02/01 00:13:38;;;;;;;;;;;;;;;5.66;59.49;98761.75;4497650;31;19988;-86
2022/02/01 00:37:23;;;;;;;;;;;;;;;5.82;59.50;98750.94;4483325;32;19981;-86
2022/02/01 00:39:55;;;;;;;;;;;;;;;5.70;59.50;98755.62;4484552;31;19977;-86
2022/02/01 00:42:21;;;;;;;;;;;;;;;5.64;59.50;98756.63;4482673;32;19990;-85
2022/02/01 00:44:46;;;;;;;;;;;;;;;5.30;59.47;98761.03;4482802;32;20028;-87
2022/02/01 00:47:11;;;;;;;;;;;;;;;5.42;59.48;98758.09;4470055;32;19976;-84
2022/02/01 00:49:37;;;;;;;;;;;;;;;5.31;59.47;98757.56;4483521;32;20055;-87
2022/02/01 00:52:03;;;;;;;;;;;;;;;5.38;59.48;98770.25;4470051;32;20009;-85
2022/02/01 00:54:28;;;;;;;;;;;;;;;5.48;59.49;98771.72;4483233;32;20022;-86
2022/02/01 00:56:53;;;;;;;;;;;;;;;5.36;59.48;98772.03;4483419;32;19988;-86
2022/02/01 00:59:18;;;;;;;;;;;;;;;5.33;59.48;98769.53;4482904;32;19984;-86
2022/02/01 01:01:43;;;;;;;;;;;;;;;5.31;59.48;98771.31;4484183;32;34713;-86
2022/02/01 01:04:09;;;;;;;;;;;;;;;5.42;59.48;98766.69;4483924;32;31672;-86
2022/02/01 01:06:34;;;;;;;;;;;;;;;5.58;59.50;98759.37;4484138;32;22440;-86
2022/02/01 01:08:59;;;;;;;;;;;;;;;5.45;59.48;98766.63;4483952;32;27717;-86
2022/02/01 01:11:24;;;;;;;;;;;;;;;5.36;59.48;98766.00;4484711;32;19981;-86
2022/02/01 01:43:47;;;;;;;;;;;;;;;5.21;59.47;98729.44;4515742;31;20024;-86
2022/02/01 01:52:47;;;;;;;;;;;;;;;5.34;59.47;98734.25;4503589;31;20004;-86
2022/02/01 01:54:31;;;;;;;;;;;;;;;5.24;59.48;98729.34;4515404;31;19987;-85
2022/02/01 01:56:57;;;;;;;;;;;;;;;5.21;59.47;98737.16;4514906;31;24196;-86
2022/02/01 01:59:23;;;;;;;;;;;;;;;5.14;59.46;98743.34;4487526;31;20018;-85
2022/02/01 02:01:48;;;;;;;;;;;;;;;5.12;59.47;98737.38;4487593;31;20039;-86
2022/02/01 02:04:13;;;;;;;;;;;;;;;5.18;59.47;98744.97;4500807;31;20329;-86
2022/02/01 02:06:38;;;;;;;;;;;;;;;5.23;59.47;98737.13;4500207;31;20007;-85
2022/02/01 02:09:06;;;;;;;;;;;;;;;5.30;59.47;98741.22;4515023;31;19987;-85
2022/02/01 02:16:43;;;;;;;;;;;;;;;5.12;59.47;98757.19;4503052;31;20002;-85
2022/02/01 02:19:09;;;;;;;;;;;;;;;5.16;59.47;98759.63;4502611;31;19996;-85
2022/02/01 02:21:34;;;;;;;;;;;;;;;5.15;59.46;98750.22;4502498;31;20275;-86
2022/02/01 02:23:59;;;;;;;;;;;;;;;5.13;59.47;98748.56;4502582;31;19983;-85
2022/02/01 02:26:24;;;;;;;;;;;;;;;5.10;59.47;98754.66;4488939;31;23607;-86
2022/02/01 02:28:50;;;;;;;;;;;;;;;5.16;59.46;98756.22;4488787;31;24146;-85
2022/02/01 02:31:16;;;;;;;;;;;;;;;5.20;59.47;98756.13;4499746;31;19996;-85
2022/02/01 02:33:41;;;;;;;;;;;;;;;5.21;59.47;98755.22;4499979;31;20322;-85
2022/02/01 02:36:12;;;;;;;;;;;;;;;5.31;59.48;98755.81;4501063;31;20024;-85
2022/02/01 02:38:44;;;;;;;;;;;;;;;5.35;59.48;98761.75;4487705;31;20042;-86
2022/02/01 02:46:30;;;;;;;;;;;;;;;5.52;59.48;98769.88;4501344;31;20003;-85
2022/02/01 02:48:55;;;;;;;;;;;;;;;5.58;59.49;98769.72;4499596;31;20315;-86
2022/02/01 02:51:20;;;;;;;;;;;;;;;5.54;59.49;98779.28;4485864;31;30418;-86
2022/02/01 02:53:46;;;;;;;;;;;;;;;5.46;59.48;98785.53;4499850;31;20619;-87
2022/02/01 02:56:11;;;;;;;;;;;;;;;5.41;59.48;98785.62;4499738;31;19994;-87
2022/02/01 02:58:36;;;;;;;;;;;;;;;5.53;59.49;98784.47;4499729;31;20038;-86
2022/02/01 03:01:02;;;;;;;;;;;;;;;5.44;59.48;98787.28;4486280;31;20347;-86
2022/02/01 03:03:27;;;;;;;;;;;;;;;5.62;59.50;98785.94;4501091;31;19976;-86
2022/02/01 03:05:52;;;;;;;;;;;;;;;5.48;59.49;98786.34;4499456;31;20037;-85
2022/02/01 03:08:17;;;;;;;;;;;;;;;5.52;59.49;98790.53;4500917;31;19968;-85
2022/02/01 03:10:44;;;;;;;;;;;;;;;5.57;59.49;98795.56;4498903;31;29250;-85
2022/02/01 03:13:14;;;;;;;;;;;;;;;5.40;59.48;98791.69;4500902;31;19972;-85
2022/02/01 03:15:47;;;;;;;;;;;;;;;5.44;59.48;98803.66;4500974;31;19987;-85
2022/02/01 03:20:57;;;;;;;;;;;;;;;5.46;59.49;98796.72;4501138;31;20024;-83
2022/02/01 03:23:22;;;;;;;;;;;;;;;5.54;59.49;98799.06;4499834;31;19988;-85
2022/02/01 03:25:47;;;;;;;;;;;;;;;5.44;59.48;98797.59;4499672;31;20317;-85
2022/02/01 03:28:12;;;;;;;;;;;;;;;5.61;59.50;98808.34;4499514;31;19987;-84
2022/02/01 03:30:38;;;;;;;;;;;;;;;5.64;59.49;98800.50;4485459;31;34656;-85
2022/02/01 03:33:03;;;;;;;;;;;;;;;5.68;59.50;98812.47;4501114;31;19999;-86
2022/02/01 03:35:28;;;;;;;;;;;;;;;5.78;59.50;98805.31;4499479;31;20040;-86
2022/02/01 03:37:53;;;;;;;;;;;;;;;5.66;59.49;98811.63;4500360;31;28008;-85
2022/02/01 03:40:20;;;;;;;;;;;;;;;5.64;59.50;98812.56;4500242;31;26555;-85
2022/02/01 03:42:46;;;;;;;;;;;;;;;5.48;59.48;98807.84;4499691;31;19977;-86
2022/02/01 03:45:11;;;;;;;;;;;;;;;5.51;59.49;98815.50;4500624;31;20015;-86
2022/02/01 03:47:36;;;;;;;;;;;;;;;5.43;59.48;98820.00;4500911;31;19968;-85
2022/02/01 03:50:02;;;;;;;;;;;;;;;5.46;59.48;98813.94;4499417;31;20421;-85
2022/02/01 03:52:27;;;;;;;;;;;;;;;5.62;59.50;98815.19;4499593;31;20011;-84
2022/02/01 03:54:52;;;;;;;;;;;;;;;5.54;59.49;98817.16;4486421;31;20007;-84
2022/02/01 03:57:18;;;;;;;;;;;;;;;5.67;59.49;98812.47;4499190;31;19980;-84
2022/02/01 03:59:44;;;;;;;;;;;;;;;5.80;59.50;98814.69;4485728;31;23953;-85
2022/02/01 04:02:09;;;;;;;;;;;;;;;5.78;59.51;98811.31;4499355;31;20365;-84
2022/02/01 04:04:35;;;;;;;;;;;;;;;5.67;59.49;98812.47;4500920;31;20011;-84
2022/02/01 04:07:00;;;;;;;;;;;;;;;5.50;59.49;98824.12;4498865;31;29450;-84
2022/02/01 04:09:26;;;;;;;;;;;;;;;5.35;59.48;98829.69;4499402;31;19992;-84
2022/02/01 04:11:54;;;;;;;;;;;;;;;5.41;59.48;98844.16;4499778;31;19968;-83
2022/02/01 04:14:22;;;;;;;;;;;;;;;5.44;59.48;98855.28;4486784;31;20322;-83
2022/02/01 04:16:47;;;;;;;;;;;;;;;5.34;59.47;98853.78;4499676;31;20007;-83
2022/02/01 04:19:13;;;;;;;;;;;;;;;5.37;59.48;98851.13;4499087;31;20293;-83
2022/02/01 04:21:41;;;;;;;;;;;;;;;5.45;59.48;98849.22;4500719;31;19980;-83
2022/02/01 04:24:06;;;;;;;;;;;;;;;5.37;59.47;98850.28;4499507;31;20790;-83
2022/02/01 04:26:31;;;;;;;;;;;;;;;5.53;59.49;98849.84;4499395;31;20024;-83
2022/02/01 04:28:57;;;;;;;;;;;;;;;5.63;59.50;98847.03;4500003;31;25635;-83
2022/02/01 04:31:22;;;;;;;;;;;;;;;5.57;59.49;98848.03;4496842;31;26194;-84
2022/02/01 04:33:48;;;;;;;;;;;;;;;5.51;59.49;98836.16;4500842;31;19979;-83
2022/02/01 04:36:13;;;;;;;;;;;;;;;5.60;59.48;98845.38;4498851;31;19996;-84
2022/02/01 04:38:42;;;;;;;;;;;;;;;5.85;59.50;98859.31;4499200;31;19994;-84
2022/02/01 04:41:08;;;;;;;;;;;;;;;5.69;59.50;98868.38;4499733;31;20052;-84
2022/02/01 04:43:33;;;;;;;;;;;;;;;5.82;59.50;98867.16;4500551;31;19996;-84
2022/02/01 04:46:01;;;;;;;;;;;;;;;5.82;59.50;98869.75;4500616;31;19984;-84
2022/02/01 04:48:26;;;;;;;;;;;;;;;5.79;59.51;98872.41;4499216;31;19995;-84
2022/02/01 04:50:52;;;;;;;;;;;;;;;5.57;59.49;98870.44;4498818;31;20305;-83
2022/02/01 04:53:17;;;;;;;;;;;;;;;5.53;59.49;98887.72;4499210;31;20372;-85
2022/02/01 04:55:54;;;;;;;;;;;;;;;5.50;59.48;98886.06;4498265;31;31664;-84
2022/02/01 04:58:19;;;;;;;;;;;;;;;5.44;59.48;98886.25;4498983;31;19980;-84
2022/02/01 05:00:44;;;;;;;;;;;;;;;5.34;59.47;98897.66;4498915;31;19975;-83
2022/02/01 05:03:10;;;;;;;;;;;;;;;5.25;59.48;98897.91;4498493;31;24778;-83
2022/02/01 05:05:35;;;;;;;;;;;;;;;5.18;59.47;98898.91;4499883;31;23258;-83
2022/02/01 05:08:04;;;;;;;;;;;;;;;4.83;59.45;98905.72;4500184;31;20029;-84
2022/02/01 05:10:32;;;;;;;;;;;;;;;4.70;59.43;98912.03;4500402;31;19993;-84
2022/02/01 05:13:15;;;;;;;;;;;;;;;4.57;59.43;98908.88;4498858;31;20055;-84
2022/02/01 05:15:41;;;;;;;;;;;;;;;4.70;59.44;98913.75;4500237;31;19998;-84
2022/02/01 05:18:13;;;;;;;;;;;;;;;4.65;59.44;98924.19;4498818;31;19977;-84
2022/02/01 05:20:50;;;;;;;;;;;;;;;4.71;59.44;98912.88;4499915;31;19980;-84
2022/02/01 05:23:17;;;;;;;;;;;;;;;4.76;59.45;98916.22;4498742;31;19988;-84
2022/02/01 05:25:43;;;;;;;;;;;;;;;4.76;59.44;98927.37;4485613;31;20028;-84
2022/02/01 05:28:08;;;;;;;;;;;;;;;4.82;59.45;98934.97;4498460;31;19985;-84
2022/02/01 05:30:35;;;;;;;;;;;;;;;4.68;59.44;98937.00;4484377;31;31228;-83
2022/02/01 05:33:00;;;;;;;;;;;;;;;4.81;59.45;98933.28;4499931;31;20043;-84
2022/02/01 05:35:25;;;;;;;;;;;;;;;4.88;59.46;98939.16;4499858;31;19991;-82
2022/02/01 05:37:50;;;;;;;;;;;;;;;4.91;59.45;98946.81;4500104;31;19999;-82
2022/02/01 05:40:16;;;;;;;;;;;;;;;4.69;59.44;98954.16;4499735;31;19960;-82
2022/02/01 05:42:55;;;;;;;;;;;;;;;4.57;59.43;98965.59;4499750;31;19984;-83
2022/02/01 05:45:20;;;;;;;;;;;;;;;4.69;59.44;98968.78;4498527;31;20404;-83
2022/02/01 05:47:45;;;;;;;;;;;;;;;4.65;59.44;98973.16;4497474;31;32269;-83
2022/02/01 05:50:11;;;;;;;;;;;;;;;4.73;59.44;98975.56;4498961;31;27095;-83
2022/02/01 05:52:36;;;;;;;;;;;;;;;4.74;59.45;98988.44;4499334;31;20095;-83
2022/02/01 05:55:01;;;;;;;;;;;;;;;4.86;59.45;99000.22;4499611;31;27271;-83
2022/02/01 05:57:26;;;;;;;;;;;;;;;4.90;59.45;99007.84;4501495;31;19992;-83
2022/02/01 05:59:52;;;;;;;;;;;;;;;4.82;59.45;99014.06;4501558;31;19999;-82
2022/02/01 06:02:18;;;;;;;;;;;;;;;4.81;59.45;99015.78;4486437;31;28239;-82
2022/02/01 06:04:43;;;;;;;;;;;;;;;4.84;59.45;99007.12;4500377;31;19980;-83
2022/02/01 06:07:09;;;;;;;;;;;;;;;4.91;59.45;99011.28;4501085;31;24518;-83
2022/02/01 06:09:34;;;;;;;;;;;;;;;4.87;59.45;99015.66;4500134;31;19972;-83
2022/02/01 06:11:59;;;;;;;;;;;;;;;4.75;59.45;99020.22;4500183;31;20008;-84
2022/02/01 06:14:25;;;;;;;;;;;;;;;4.78;59.44;99033.06;4500943;31;29074;-84
2022/02/01 06:16:50;;;;;;;;;;;;;;;4.79;59.45;99039.91;4501478;31;20371;-84
2022/02/01 06:19:15;;;;;;;;;;;;;;;4.86;59.45;99038.91;4499500;31;29586;-84
2022/02/01 06:21:41;;;;;;;;;;;;;;;4.72;59.45;99034.00;4499725;31;20010;-83
2022/02/01 06:24:07;;;;;;;;;;;;;;;4.78;59.44;99039.06;4501643;31;19980;-84
2022/02/01 06:26:33;;;;;;;;;;;;;;;4.79;59.45;99045.91;4500228;31;20137;-84
2022/02/01 06:28:58;;;;;;;;;;;;;;;4.69;59.44;99066.72;4501176;31;19991;-84
2022/02/01 06:31:23;;;;;;;;;;;;;;;4.62;59.44;99068.59;4499793;31;20004;-84
2022/02/01 06:33:48;;;;;;;;;;;;;;;4.72;59.45;99071.81;4500134;31;20042;-84
2022/02/01 06:36:13;;;;;;;;;;;;;;;4.79;59.45;99070.84;4500886;31;27966;-84
2022/02/01 06:38:39;;;;;;;;;;;;;;;4.86;59.44;99072.41;4500047;31;20275;-84
2022/02/01 06:41:04;;;;;;;;;;;;;;;4.91;59.45;99079.19;4501499;31;20024;-84
2022/02/01 06:43:29;;;;;;;;;;;;;;;4.82;59.45;99074.22;4500164;31;19996;-84
2022/02/01 06:45:54;;;;;;;;;;;;;;;4.86;59.45;99082.72;4500639;31;28693;-84
2022/02/01 06:48:20;;;;;;;;;;;;;;;4.92;59.45;99082.59;4499834;31;19992;-84
2022/02/01 06:50:45;;;;;;;;;;;;;;;4.96;59.45;99085.97;4499377;31;24466;-85
2022/02/01 06:53:10;;;;;;;;;;;;;;;5.02;59.46;99102.19;4500031;31;20259;-84
2022/02/01 06:58:11;;;;;;;;;;;;;;;4.85;59.45;99127.44;4500056;31;20492;-84
2022/02/01 07:00:36;;;;;;;;;;;;;;;4.99;59.46;99132.34;4500093;31;20052;-84
2022/02/01 07:03:01;;;;;;;;;;;;;;;4.86;59.44;99137.72;4500182;31;29391;-84
2022/02/01 07:05:27;;;;;;;;;;;;;;;4.78;59.44;99142.19;4499336;31;29770;-84
2022/02/01 07:07:52;;;;;;;;;;;;;;;4.75;59.44;99149.13;4501294;31;20006;-84
2022/02/01 07:10:17;;;;;;;;;;;;;;;4.79;59.45;99148.19;4501230;31;20007;-84
2022/02/01 07:12:42;;;;;;;;;;;;;;;4.75;59.44;99150.00;4499998;31;20358;-84
2022/02/01 07:15:08;;;;;;;;;;;;;;;4.83;59.44;99160.16;4500092;31;20010;-84
2022/02/01 07:17:42;;;;;;;;;;;;;;;4.77;59.44;99155.97;4501257;31;20429;-84
2022/02/01 07:20:08;;;;;;;;;;;;;;;4.83;59.45;99155.00;4501343;31;20008;-84
2022/02/01 07:22:35;;;;;;;;;;;;;;;4.52;59.43;99173.59;4501305;31;20281;-84
2022/02/01 07:25:12;;;;;;;;;;;;;;;4.53;59.43;99184.75;4501269;31;19991;-84
2022/02/01 07:27:42;;;;;;;;;;;;;;;4.53;59.43;99184.75;4499801;31;19988;-84
2022/02/01 07:30:13;;;;;;;;;;;;;;;4.39;59.42;99195.25;4501073;31;20022;-84
2022/02/01 07:32:38;;;;;;;;;;;;;;;4.35;59.42;99190.19;4501196;31;19984;-84
2022/02/01 07:35:04;;;;;;;;;;;;;;;4.44;59.43;99192.59;4501088;31;20006;-84
2022/02/01 07:37:29;;;;;;;;;;;;;;;4.39;59.42;99184.97;4499574;31;20376;-84
2022/02/01 07:39:55;;;;;;;;;;;;;;;4.39;59.42;99187.53;4499338;31;20007;-83
2022/02/01 07:42:20;;;;;;;;;;;;;;;4.46;59.42;99185.69;4498766;31;30769;-83
2022/02/01 07:44:45;;;;;;;;;;;;;;;4.40;59.42;99189.22;4498817;31;28369;-84
2022/02/01 07:47:18;;;;;;;;;;;;;;;4.29;59.42;99196.28;4500454;31;20333;-84
2022/02/01 07:49:43;;;;;;;;;;;;;;;4.24;59.42;99198.91;4499710;31;20010;-84
2022/02/01 07:52:08;;;;;;;;;;;;;;;4.48;59.43;99202.84;4500345;31;27461;-84
2022/02/01 07:54:33;;;;;;;;;;;;;;;4.61;59.43;99203.50;4498835;31;27476;-84
2022/02/01 07:56:58;;;;;;;;;;;;;;;4.63;59.43;99212.91;4500210;31;26140;-84
2022/02/01 07:59:24;;;;;;;;;;;;;;;4.47;59.43;99215.75;4498509;31;35861;-84
2022/02/01 08:01:49;;;;;;;;;;;;;;;4.35;59.43;99216.81;4500685;31;19979;-84
2022/02/01 08:04:14;;;;;;;;;;;;;;;4.35;59.42;99218.53;4499404;31;20322;-83
2022/02/01 08:06:40;;;;;;;;;;;;;;;4.27;59.42;99224.66;4499217;31;19987;-83
2022/02/01 08:09:14;;;;;;;;;;;;;;;4.14;59.41;99224.84;4499848;31;33660;-84
2022/02/01 08:11:39;;;;;;;;;;;;;;;4.04;59.40;99231.03;4500697;31;19980;-84
2022/02/01 08:16:54;;;;;;;;;;;;;;;4.45;59.43;99233.81;4500529;31;19976;-84
2022/02/01 08:19:28;;;;;;;;;;;;;;;4.48;59.42;99233.75;4488282;31;20435;-83
2022/02/01 08:21:54;;;;;;;;;;;;;;;4.47;59.43;99244.94;4499535;31;19984;-85
2022/02/01 08:24:20;;;;;;;;;;;;;;;4.39;59.42;99253.69;4500760;31;20073;-84
2022/02/01 08:26:45;;;;;;;;;;;;;;;4.46;59.43;99261.28;4499359;31;19964;-84
2022/02/01 08:29:10;;;;;;;;;;;;;;;4.57;59.42;99258.56;4498713;31;24165;-84
2022/02/01 08:31:35;;;;;;;;;;;;;;;4.51;59.43;99269.81;4509585;31;24179;-84
2022/02/01 08:34:01;;;;;;;;;;;;;;;4.46;59.43;99274.16;4516649;31;19987;-83
2022/02/01 08:36:26;;;;;;;;;;;;;;;4.65;59.44;99279.06;4501430;31;24566;-84
2022/02/01 08:38:52;;;;;;;;;;;;;;;4.61;59.43;99279.09;4501960;31;19994;-84
2022/02/01 08:41:17;;;;;;;;;;;;;;;4.80;59.45;99283.97;4516375;31;19980;-84
2022/02/01 08:43:42;;;;;;;;;;;;;;;4.71;59.43;99284.09;4502045;31;19979;-84
2022/02/01 08:46:07;;;;;;;;;;;;;;;4.79;59.45;99290.00;4488690;31;20030;-84
2022/02/01 08:48:33;;;;;;;;;;;;;;;4.85;59.44;99301.06;4488701;31;20007;-84
2022/02/01 08:51:03;;;;;;;;;;;;;;;4.97;59.45;99309.47;4501017;31;27330;-84
2022/02/01 08:53:36;;;;;;;;;;;;;;;4.94;59.46;99306.06;4502499;31;19972;-84
2022/02/01 08:56:03;;;;;;;;;;;;;;;5.09;59.46;99296.38;4516374;31;20035;-85
2022/02/01 08:58:28;;;;;;;;;;;;;;;5.22;59.47;99300.47;4501876;31;20014;-85
2022/02/01 09:00:54;;;;;;;;;;;;;;;5.45;59.48;99302.63;4501807;31;20332;-84
2022/02/01 09:03:19;;;;;;;;;;;;;;;5.49;59.49;99299.09;4501826;31;19980;-84
2022/02/01 09:05:51;;;;;;;;;;;;;;;5.66;59.49;99303.94;4500970;31;29441;-85
2022/02/01 09:08:17;;;;;;;;;;;;;;;5.49;59.48;99314.59;4486226;31;19992;-85
2022/02/01 09:10:42;;;;;;;;;;;;;;;5.17;59.47;99316.00;4498923;31;20026;-87
2022/02/01 09:13:07;;;;;;;;;;;;;;;5.22;59.46;99315.94;4499206;31;20000;-85
2022/02/01 09:15:33;;;;;;;;;;;;;;;5.27;59.47;99308.13;4500369;31;20434;-85
2022/02/01 09:17:59;;;;;;;;;;;;;;;5.43;59.48;99314.69;4500038;31;19992;-84
2022/02/01 09:20:25;;;;;;;;;;;;;;;5.61;59.48;99318.66;4485661;31;20008;-85
2022/02/01 09:22:50;;;;;;;;;;;;;;;5.57;59.49;99319.59;4498483;31;20289;-82
2022/02/01 09:25:17;;;;;;;;;;;;;;;5.55;59.49;99323.06;4499946;31;20006;-84
2022/02/01 09:27:43;;;;;;;;;;;;;;;5.66;59.49;99315.09;4498350;31;19996;-86
2022/02/01 09:30:08;;;;;;;;;;;;;;;5.87;59.50;99325.03;4498519;31;20029;-87
2022/02/01 09:32:34;;;;;;;;;;;;;;;5.91;59.51;99328.44;4500080;31;20413;-85
2022/02/01 09:34:59;;;;;;;;;;;;;;;5.75;59.49;99334.75;4498644;31;20245;-88
2022/02/01 09:37:24;;;;;;;;;;;;;;;5.94;59.51;99327.53;4498641;31;20008;-87
2022/02/01 09:39:50;;;;;;;;;;;;;;;6.22;59.53;99315.75;4485426;31;20335;-88
2022/02/01 09:42:15;;;;;;;;;;;;;;;6.32;59.53;99313.81;4498532;31;20013;-88
2022/02/01 09:44:41;;;;;;;;;;;;;;;6.38;59.54;99306.75;4485494;31;20003;-87
2022/02/01 09:47:06;;;;;;;;;;;;;;;6.36;59.54;99310.25;4497539;31;20000;-86
2022/02/01 09:49:31;;;;;;;;;;;;;;;6.42;59.53;99315.31;4497734;31;20004;-86
2022/02/01 09:51:57;;;;;;;;;;;;;;;6.53;59.54;99318.50;4497726;31;26497;-89
2022/02/01 09:54:24;;;;;;;;;;;;;;;6.79;59.55;99325.66;4497987;31;19980;-87
2022/02/01 09:56:50;;;;;;;;;;;;;;;6.75;59.55;99324.03;4499079;31;19988;-85
2022/02/01 09:59:16;;;;;;;;;;;;;;;6.49;59.54;99332.41;4497881;31;20010;-83
2022/02/01 10:01:44;;;;;;;;;;;;;;;6.24;59.52;99326.06;4497803;31;19972;-86
2022/02/01 10:04:09;;;;;;;;;;;;;;;6.57;59.54;99319.28;4497553;31;20410;-87
2022/02/01 10:06:36;;;;;;;;;;;;;;;6.71;59.55;99325.00;4497391;31;20014;-85
2022/02/01 10:09:05;;;;;;;;;;;;;;;6.96;59.57;99323.53;4497273;31;20039;-88
2022/02/01 10:11:34;;;;;;;;;;;;;;;7.08;59.57;99324.97;4484582;31;20044;-85
2022/02/01 10:14:01;;;;;;;;;;;;;;;7.25;59.59;99325.41;4497792;31;19972;-86
2022/02/01 10:16:30;;;;;;;;;;;;;;;7.64;59.61;99343.38;4498981;31;20783;-83
2022/02/01 10:19:05;;;;;;;;;;;;;;;7.67;59.61;99344.16;4497579;31;19992;-84
2022/02/01 10:21:30;;;;;;;;;;;;;;;7.64;59.61;99333.03;4484231;31;19977;-82
2022/02/01 10:24:02;;;;;;;;;;;;;;;7.75;59.61;99322.37;4498235;31;25677;-83
2022/02/01 10:26:28;;;;;;;;;;;;;;;7.56;59.60;99316.81;4497081;31;19984;-84
2022/02/01 10:29:05;;;;;;;;;;;;;;;7.50;59.60;99302.31;4497236;31;20019;-83
2022/02/01 10:31:39;;;;;;;;;;;;;;;7.32;59.58;99310.53;4498646;31;20334;-83
2022/02/01 10:37:01;;;;;;;;;;;;;;;6.88;59.57;99319.44;4505346;31;19987;-83
2022/02/01 10:39:28;;;;;;;;;;;;;;;6.80;59.56;99319.59;4501936;31;20715;-82
2022/02/01 10:41:53;;;;;;;;;;;;;;;6.88;59.57;99319.44;4502426;31;20261;-85
2022/02/01 10:44:19;;;;;;;;;;;;;;;6.89;59.56;99331.50;4516951;31;20025;-88
2022/02/01 10:46:51;;;;;;;;;;;;;;;6.93;59.57;99328.78;4502454;31;19995;-85
2022/02/01 10:49:26;;;;;;;;;;;;;;;6.90;59.57;99339.22;4516696;31;19979;-90
2022/02/01 10:51:59;;;;;;;;;;;;;;;7.00;59.57;99335.50;4488629;31;20292;-87
2022/02/01 10:54:24;;;;;;;;;;;;;;;6.90;59.57;99334.03;4502286;31;19994;-89
2022/02/01 10:56:49;;;;;;;;;;;;;;;6.76;59.55;99346.44;4489911;31;19991;-92
2022/02/01 10:59:14;;;;;;;;;;;;;;;6.71;59.55;99353.44;4489133;31;29228;-92
2022/02/01 11:01:40;;;;;;;;;;;;;;;6.87;59.56;99346.19;4502482;31;20012;-91
2022/02/01 11:04:08;;;;;;;;;;;;;;;7.15;59.58;99347.25;4499782;31;19996;-83
2022/02/01 11:06:34;;;;;;;;;;;;;;;7.00;59.57;99342.41;4502470;31;20063;-84
2022/02/01 11:08:59;;;;;;;;;;;;;;;7.15;59.57;99343.78;4516490;31;20442;-85
2022/02/01 11:11:25;;;;;;;;;;;;;;;6.97;59.57;99339.91;4516100;31;29068;-85
2022/02/01 11:13:53;;;;;;;;;;;;;;;6.94;59.57;99340.84;4516682;31;20003;-88
2022/02/01 11:16:22;;;;;;;;;;;;;;;7.03;59.58;99344.94;4487781;31;19991;-89
2022/02/01 11:18:51;;;;;;;;;;;;;;;6.92;59.57;99345.19;4488698;31;19983;-90
2022/02/01 11:21:16;;;;;;;;;;;;;;;6.84;59.56;99352.28;4502144;31;19983;-88
2022/02/01 11:23:52;;;;;;;;;;;;;;;6.76;59.55;99356.78;4502238;31;20296;-88
2022/02/01 11:26:32;;;;;;;;;;;;;;;6.69;59.55;99355.22;4489575;31;20035;-89
2022/02/01 11:31:43;;;;;;;;;;;;;;;6.94;59.57;99377.06;4500176;31;19976;-90
2022/02/01 11:34:14;;;;;;;;;;;;;;;6.75;59.56;99355.06;4486044;31;19987;-91
2022/02/01 11:36:39;;;;;;;;;;;;;;;6.40;59.53;99346.37;4486438;31;20000;-90
2022/02/01 11:39:08;;;;;;;;;;;;;;;6.54;59.55;99355.56;4486459;31;20014;-90
2022/02/01 11:41:34;;;;;;;;;;;;;;;6.70;59.55;99339.66;4484945;31;20017;-89
2022/02/01 11:44:09;;;;;;;;;;;;;;;6.94;59.57;99333.06;4468185;32;19973;-93
2022/02/01 11:46:34;;;;;;;;;;;;;;;7.13;59.58;99343.00;4468403;32;20011;-89
2022/02/01 11:49:01;;;;;;;;;;;;;;;7.24;59.58;99333.19;4468086;32;19989;-88
2022/02/01 11:51:28;;;;;;;;;;;;;;;7.03;59.57;99335.44;4469427;32;19997;-89
2022/02/01 11:53:57;;;;;;;;;;;;;;;7.12;59.58;99326.59;4454888;32;19977;-88
2022/02/01 11:56:29;;;;;;;;;;;;;;;6.94;59.56;99319.28;4467857;32;20044;-87
2022/02/01 11:58:56;;;;;;;;;;;;;;;6.73;59.56;99325.81;4467887;32;20052;-89
2022/02/01 12:01:22;;;;;;;;;;;;;;;6.55;59.55;99333.97;4468007;32;20364;-87
2022/02/01 12:03:58;;;;;;;;;;;;;;;6.38;59.53;99335.19;4466368;32;20029;-87
2022/02/01 12:06:23;;;;;;;;;;;;;;;6.52;59.54;99341.81;4467409;32;20016;-87
2022/02/01 12:08:49;;;;;;;;;;;;;;;6.86;59.56;99324.66;4469072;32;19996;-87
2022/02/01 12:11:15;;;;;;;;;;;;;;;6.83;59.56;99329.87;4468777;32;19999;-89
2022/02/01 12:13:40;;;;;;;;;;;;;;;6.59;59.55;99338.19;4467853;32;19984;-90
2022/02/01 12:16:07;;;;;;;;;;;;;;;6.60;59.55;99324.38;4467603;32;20328;-90
2022/02/01 12:18:36;;;;;;;;;;;;;;;6.82;59.56;99319.56;4468950;32;19981;-88
2022/02/01 12:21:11;;;;;;;;;;;;;;;6.90;59.56;99318.50;4467192;32;20038;-88
2022/02/01 12:23:36;;;;;;;;;;;;;;;6.95;59.57;99321.00;4468546;32;20052;-82
2022/02/01 12:26:01;;;;;;;;;;;;;;;7.19;59.59;99322.97;4468684;32;20304;-84
2022/02/01 12:28:27;;;;;;;;;;;;;;;7.12;59.58;99328.34;4467725;32;20026;-86
2022/02/01 12:31:03;;;;;;;;;;;;;;;7.11;59.58;99331.81;4468862;32;20000;-83
2022/02/01 12:33:29;;;;;;;;;;;;;;;6.73;59.56;99338.75;4468812;32;20553;-84
2022/02/01 12:35:55;;;;;;;;;;;;;;;6.56;59.54;99338.28;4468534;32;20018;-84
2022/02/01 12:38:22;;;;;;;;;;;;;;;6.45;59.54;99341.97;4454047;32;19996;-83
2022/02/01 12:41:00;;;;;;;;;;;;;;;6.53;59.54;99341.78;4468356;32;20032;-83
2022/02/01 12:43:29;;;;;;;;;;;;;;;6.57;59.54;99343.41;4468627;32;20322;-83
2022/02/01 12:48:23;;;;;;;;;;;;;;;6.59;59.55;99340.78;4467296;32;20716;-85
2022/02/01 12:50:52;;;;;;;;;;;;;;;6.49;59.54;99336.72;4453496;32;23884;-85
2022/02/01 12:53:17;;;;;;;;;;;;;;;6.48;59.54;99333.28;4467423;32;20448;-86
2022/02/01 12:55:42;;;;;;;;;;;;;;;6.57;59.54;99332.22;4467284;32;19998;-86
2022/02/01 12:58:07;;;;;;;;;;;;;;;6.59;59.55;99328.69;4466206;32;29769;-86
2022/02/01 13:00:34;;;;;;;;;;;;;;;6.25;59.52;99331.19;4466142;32;20373;-88
2022/02/01 13:03:02;;;;;;;;;;;;;;;6.15;59.52;99330.53;4454021;32;20487;-83
2022/02/01 13:05:30;;;;;;;;;;;;;;;5.98;59.51;99332.63;4468411;32;19996;-83
2022/02/01 13:21:05;;;;;;;;;;;;;;;6.93;59.57;99338.28;4467113;32;19999;-84
2022/02/01 13:23:37;;;;;;;;;;;;;;;6.76;59.55;99336.09;4467293;32;20038;-84
2022/02/01 13:26:26;;;;;;;;;;;;;;;6.83;59.56;99329.87;4468495;32;19988;-84
2022/02/01 13:29:15;;;;;;;;;;;;;;;6.68;59.55;99335.44;4462624;32;19996;-84
2022/02/01 13:31:45;;;;;;;;;;;;;;;6.86;59.57;99323.78;4481475;31;19976;-84
2022/02/01 13:34:13;;;;;;;;;;;;;;;6.85;59.56;99316.91;4485469;31;20059;-84
2022/02/01 13:36:49;;;;;;;;;;;;;;;6.93;59.57;99313.25;4500240;31;19991;-84
2022/02/01 13:39:44;;;;;;;;;;;;;;;6.99;59.57;99327.78;4499965;31;19997;-84
2022/02/01 13:42:10;;;;;;;;;;;;;;;6.86;59.56;99327.25;4471972;31;20349;-84
2022/02/01 13:44:35;;;;;;;;;;;;;;;6.93;59.57;99331.37;4499812;31;19991;-84
2022/02/01 13:47:01;;;;;;;;;;;;;;;6.84;59.56;99318.62;4485410;31;20363;-84
2022/02/01 13:49:26;;;;;;;;;;;;;;;6.79;59.55;99341.19;4499879;31;20052;-82
2022/02/01 13:51:53;;;;;;;;;;;;;;;6.60;59.55;99337.31;4499686;31;19996;-84
2022/02/01 13:54:18;;;;;;;;;;;;;;;6.72;59.56;99332.72;4498323;31;20099;-88
2022/02/01 13:56:46;;;;;;;;;;;;;;;6.65;59.56;99345.84;4484499;31;24479;-88
2022/02/01 13:59:22;;;;;;;;;;;;;;;6.53;59.55;99341.78;4472194;31;20061;-88
2022/02/01 14:01:47;;;;;;;;;;;;;;;6.49;59.54;99337.56;4485244;31;20024;-89
2022/02/01 14:04:22;;;;;;;;;;;;;;;6.76;59.56;99341.25;4512190;31;19983;-88
2022/02/01 14:06:55;;;;;;;;;;;;;;;6.60;59.55;99345.91;4500464;31;20426;-87
2022/02/01 14:22:56;;;;;;;;;;;;;;;6.72;59.55;99329.28;4502559;31;20019;-84
2022/02/01 14:35:55;;;;;;;;;;;;;;;6.39;59.53;99346.41;4504105;31;19996;-86
2022/02/01 14:46:16;;;;;;;;;;;;;;;5.93;59.51;99341.34;4516668;31;20031;-85
2022/02/01 14:48:42;;;;;;;;;;;;;;;6.02;59.51;99346.31;4502105;31;19976;-88
2022/02/01 14:51:07;;;;;;;;;;;;;;;5.98;59.52;99330.03;4502350;31;19999;-85
2022/02/01 14:53:32;;;;;;;;;;;;;;;6.17;59.53;99334.81;4499677;31;20296;-85
2022/02/01 14:56:08;;;;;;;;;;;;;;;6.26;59.53;99343.22;4501987;31;19990;-85
2022/02/01 15:04:14;;;;;;;;;;;;;;;5.91;59.52;99345.66;4504128;31;20452;-85
2022/02/01 15:14:35;;;;;;;;;;;;;;;5.96;59.51;99346.44;4502369;31;19979;-87
2022/02/01 15:17:01;;;;;;;;;;;;;;;5.82;59.50;99351.84;4501633;31;20005;-88
2022/02/01 15:19:26;;;;;;;;;;;;;;;5.80;59.51;99348.44;4516286;31;19999;-88
2022/02/01 15:21:51;;;;;;;;;;;;;;;5.91;59.52;99345.66;4488540;31;20015;-88
2022/02/01 15:24:16;;;;;;;;;;;;;;;5.66;59.49;99343.50;4500900;31;20694;-88